バロー の空港の天気 - METARとTAF

Barrow, Wiley Post-Will Rogers Memorial Airport ( PABR / BRW ) - アメリカ アラスカ州バロー
飛行場実況気象(Metar)
観測時間10/15 23:53 AKDT (10/16 07:53 UTC)
風向・風速東 7m/s
視程10km以上
天気現象
全天を覆う雲 雲底高度 370m
気温0.6℃
湿度85%
気圧1003.3hPa
METARPABR 160753Z AUTO 10013KT 10SM OVC012 01/M02 A2963 RMK AO2 SLP033 T00061017 TSNO $
過去の天気等 Google飛行場航空写真 Wunderground天気予報

過去48時間のMETAR

飛行場予報(TAF)
発表時間: 10/15 22:18 AKDT (10/16 06:18 UTC)
予報対象時間: 15日22時 AKDT ~ 16日22時 AKDT
風向・風速東 5m/s
視程10km以上
全天の8割程度の雲 雲底高度 300m
16日2時 AKDT から
風向・風速東 9m/s
視程8050m
天気現象もや
全天の8割程度の雲 雲底高度 300m
PABR 160618Z 1606/1706 09010KT P6SM BKN010
FM161000 08017KT 5SM BR BKN010